Lower Paxton, Pennsylvania
Current Conditions -  °F | °C
As of 10:56 AM on Thursday 30 Oct 2014 (Local Time) from KCXY Reporting Station
Broken Clouds Broken Clouds  
Wind Chill: 53°   Ceiling: 7000
Heat Index: 53°   Visibility: 10mi
Dew Point: 41°   Wind: 9mph
Humidity: 64%   Direction: 270°W
Pressure: 30.06"   Gusts: NA
Location:  40.3615°N, 76.7974°W
Report Text: KCXY 301456Z 27008KT 10SM BKN070 12/05 A3006 RMK AO2 SLP182 T01170050 51007
Loading
Personal Weather Stations






























Interactive Weather Map
Tropical Storm Tracking
New forecast layout! Learn more

10-Day Weather Forecast

Advertisements
Track Severe Weather on mobile